Time;durP1;ratioP1;P1;durP2;ratioP2;P2;SDS_P1;SDS_P2;PMS_P1;PMS_P2;Temp;Humidity;BMP_temperature;BMP_pressure;BME280_temperature;BME280_humidity;BME280_pressure;Samples;Min_cycle;Max_cycle;Signal;HPM_P1;HPM_P2
2021/12/21 00:01:53;;;;;;;7.20;5.68;;;;;;;-2.10;100.00;102888.84;4844410;29;20178;-82
2021/12/21 00:04:18;;;;;;;19.20;13.95;;;;;;;-2.07;100.00;102897.78;4815008;29;20274;-82
2021/12/21 00:06:44;;;;;;;16.90;9.95;;;;;;;-2.16;100.00;102891.22;4814346;29;20187;-80
2021/12/21 00:09:10;;;;;;;12.27;9.77;;;;;;;-2.15;100.00;102895.63;4828550;29;20203;-82
2021/12/21 00:11:36;;;;;;;13.43;8.20;;;;;;;-2.23;100.00;102882.16;4845293;29;20186;-82
2021/12/21 00:14:18;;;;;;;14.48;8.27;;;;;;;-2.24;100.00;102884.69;4859411;29;20191;-81
2021/12/21 00:17:01;;;;;;;13.20;8.40;;;;;;;-2.31;100.00;102891.38;4843584;29;20167;-81
2021/12/21 00:22:25;;;;;;;12.27;6.93;;;;;;;-2.33;100.00;102887.78;4827006;29;20178;-81
2021/12/21 00:24:51;;;;;;;11.45;6.65;;;;;;;-2.36;100.00;102888.53;4826586;29;20216;-81
2021/12/21 00:27:16;;;;;;;8.20;6.30;;;;;;;-2.40;100.00;102888.31;4843128;29;20637;-81
2021/12/21 00:29:42;;;;;;;10.10;6.60;;;;;;;-2.45;100.00;102885.44;4826277;29;20295;-81
2021/12/21 00:32:09;;;;;;;9.63;6.00;;;;;;;-2.47;100.00;102894.09;4827210;29;20274;-81
2021/12/21 00:34:34;;;;;;;9.30;5.90;;;;;;;-2.45;100.00;102890.69;4825620;29;20186;-81
2021/12/21 00:37:00;;;;;;;11.70;6.75;;;;;;;-2.61;100.00;102889.06;4841878;29;20199;-81
2021/12/21 00:39:25;;;;;;;9.18;5.90;;;;;;;-2.55;100.00;102894.63;4825604;29;20207;-81
2021/12/21 00:41:51;;;;;;;9.48;6.20;;;;;;;-2.54;100.00;102887.63;4825125;29;20548;-81
2021/12/21 00:44:16;;;;;;;9.38;5.60;;;;;;;-2.58;100.00;102894.47;4825366;29;20230;-81
2021/12/21 00:46:43;;;;;;;9.95;5.72;;;;;;;-2.59;100.00;102902.28;4825639;29;20178;-81
2021/12/21 00:49:14;;;;;;;8.70;5.43;;;;;;;-2.65;100.00;102889.72;4842767;29;20206;-81
2021/12/21 00:51:45;;;;;;;7.88;5.60;;;;;;;-2.67;100.00;102891.38;4842389;29;20210;-81
2021/12/21 00:54:12;;;;;;;12.07;5.38;;;;;;;-2.67;100.00;102887.88;4841766;29;20645;-82
2021/12/21 00:56:38;;;;;;;7.25;5.53;;;;;;;-2.67;100.00;102885.25;4824970;29;20642;-81
2021/12/21 00:59:04;;;;;;;10.13;5.30;;;;;;;-2.65;100.00;102884.47;4825738;29;20206;-82
2021/12/21 01:01:30;;;;;;;8.20;5.70;;;;;;;-2.63;100.00;102882.84;4841777;29;20750;-82
2021/12/21 01:03:57;;;;;;;9.68;4.97;;;;;;;-2.70;100.00;102881.63;4841865;29;20212;-82
2021/12/21 01:11:30;;;;;;;11.23;4.85;;;;;;;-2.72;100.00;102867.53;4841460;29;20231;-82
2021/12/21 01:16:29;;;;;;;9.65;5.70;;;;;;;-2.71;100.00;102876.34;4841484;29;20183;-82
2021/12/21 01:21:31;;;;;;;6.60;5.20;;;;;;;-2.78;100.00;102866.34;4825119;29;20182;-82
2021/12/21 01:31:47;;;;;;;9.98;4.97;;;;;;;-2.86;100.00;102865.06;4841992;29;20208;-83
2021/12/21 01:34:34;;;;;;;7.70;5.65;;;;;;;-2.81;100.00;102855.72;4810387;29;20182;-83
2021/12/21 01:42:51;;;;;;;9.13;5.45;;;;;;;-2.84;100.00;102861.72;4785441;30;20192;-83
2021/12/21 01:50:48;;;;;;;9.45;5.45;;;;;;;-2.98;100.00;102847.91;4825522;29;20221;-84
2021/12/21 01:53:13;;;;;;;8.13;4.68;;;;;;;-3.06;100.00;102849.25;4826982;29;20623;-84
2021/12/21 01:55:39;;;;;;;10.75;5.60;;;;;;;-3.05;100.00;102855.41;4828780;29;20179;-83
2021/12/21 01:58:04;;;;;;;9.15;4.55;;;;;;;-3.02;100.00;102866.03;4813711;29;20211;-83
2021/12/21 02:00:31;;;;;;;13.10;5.25;;;;;;;-3.07;100.00;102855.31;4844831;29;20201;-83
2021/12/21 02:02:57;;;;;;;8.55;5.35;;;;;;;-3.12;100.00;102854.19;4828735;29;20197;-84
2021/12/21 02:05:22;;;;;;;8.57;5.28;;;;;;;-3.11;100.00;102855.97;4845728;29;20175;-83
2021/12/21 02:07:48;;;;;;;7.43;5.00;;;;;;;-3.08;100.00;102850.91;4813754;29;20204;-83
2021/12/21 02:10:13;;;;;;;12.65;5.93;;;;;;;-3.27;100.00;102848.19;4830379;29;20293;-83
2021/12/21 02:12:39;;;;;;;10.15;5.85;;;;;;;-3.23;100.00;102848.41;4831593;29;20282;-83
2021/12/21 02:15:05;;;;;;;7.50;5.85;;;;;;;-3.19;100.00;102858.22;4830141;29;20327;-84
2021/12/21 02:30:20;;;;;;;11.15;6.22;;;;;;;-3.14;100.00;102837.47;4828983;29;20555;-83
2021/12/21 02:32:46;;;;;;;11.88;5.70;;;;;;;-3.13;100.00;102831.41;4828971;29;20247;-82
2021/12/21 02:35:11;;;;;;;11.70;6.38;;;;;;;-3.19;100.00;102831.09;4814648;29;20210;-82
2021/12/21 02:37:37;;;;;;;10.48;6.03;;;;;;;-3.19;100.00;102832.00;4829125;29;20218;-83
2021/12/21 02:40:04;;;;;;;8.43;5.18;;;;;;;-3.37;100.00;102833.69;4813512;29;20207;-83
2021/12/21 02:42:30;;;;;;;8.57;5.40;;;;;;;-3.33;100.00;102831.28;4844731;29;20186;-82
2021/12/21 02:44:56;;;;;;;6.88;5.57;;;;;;;-3.36;100.00;102838.13;4844633;29;20615;-84
2021/12/21 02:47:21;;;;;;;8.77;5.25;;;;;;;-3.34;100.00;102833.84;4827814;29;20175;-83
2021/12/21 02:49:47;;;;;;;8.05;5.22;;;;;;;-3.39;100.00;102833.63;4812885;29;20641;-83
2021/12/21 02:52:12;;;;;;;7.38;4.97;;;;;;;-3.36;100.00;102820.66;4828204;29;20528;-82
2021/12/21 02:54:37;;;;;;;7.57;5.70;;;;;;;-3.43;100.00;102815.94;4811094;29;20187;-82
2021/12/21 02:57:03;;;;;;;9.02;5.03;;;;;;;-3.52;100.00;102813.75;4807663;29;20213;-83
2021/12/21 02:59:29;;;;;;;7.88;5.38;;;;;;;-3.54;100.00;102830.22;4861230;29;20213;-82
2021/12/21 03:01:55;;;;;;;14.00;5.88;;;;;;;-3.52;100.00;102825.94;4862015;29;20272;-83
2021/12/21 03:04:21;;;;;;;10.60;5.18;;;;;;;-3.53;100.00;102830.28;4846930;29;20647;-82
2021/12/21 03:09:42;;;;;;;7.72;4.75;;;;;;;-3.52;100.00;102816.38;4845184;29;20206;-82
2021/12/21 03:14:42;;;;;;;9.10;5.15;;;;;;;-3.54;100.00;102818.00;4848574;29;20608;-82
2021/12/21 03:17:08;;;;;;;6.57;4.60;;;;;;;-3.54;100.00;102822.38;4852214;29;20301;-83
2021/12/21 03:19:34;;;;;;;9.45;5.65;;;;;;;-3.60;100.00;102817.69;4845197;29;20270;-83
2021/12/21 03:21:59;;;;;;;9.05;5.20;;;;;;;-3.52;100.00;102808.50;4861245;29;20200;-83
2021/12/21 03:24:25;;;;;;;11.30;5.25;;;;;;;-3.52;100.00;102808.50;4862323;29;20273;-83
2021/12/21 03:26:50;;;;;;;9.85;5.13;;;;;;;-3.54;100.00;102810.16;4845116;29;20171;-82
2021/12/21 03:29:16;;;;;;;10.43;5.68;;;;;;;-3.53;100.00;102811.94;4845664;29;20284;-83
2021/12/21 03:31:41;;;;;;;12.10;5.35;;;;;;;-3.49;100.00;102810.38;4861791;29;20182;-82
2021/12/21 03:34:07;;;;;;;10.35;5.90;;;;;;;-3.47;100.00;102813.97;4845572;29;20666;-82
2021/12/21 03:36:33;;;;;;;12.75;5.82;;;;;;;-3.42;100.00;102806.34;4862602;29;20181;-82
2021/12/21 03:39:04;;;;;;;8.88;5.10;;;;;;;-3.43;100.00;102809.78;4862016;29;20206;-82
2021/12/21 03:41:32;;;;;;;12.02;6.05;;;;;;;-3.55;100.00;102807.44;4828913;29;20166;-83
2021/12/21 03:44:00;;;;;;;11.73;5.78;;;;;;;-3.63;100.00;102804.44;4844867;29;20174;-83
2021/12/21 03:46:26;;;;;;;6.60;4.97;;;;;;;-3.56;100.00;102813.53;4830523;29;20214;-83
2021/12/21 03:48:52;;;;;;;8.27;5.93;;;;;;;-3.61;100.00;102812.34;4830689;29;20178;-83
2021/12/21 03:51:20;;;;;;;8.70;4.93;;;;;;;-3.66;100.00;102813.84;4830994;29;20603;-83
2021/12/21 03:53:46;;;;;;;9.07;5.35;;;;;;;-3.62;100.00;102824.56;4845536;29;20194;-82
2021/12/21 03:58:41;;;;;;;8.65;5.65;;;;;;;-3.74;100.00;102822.22;4861940;29;20210;-83
2021/12/21 04:01:06;;;;;;;7.90;5.47;;;;;;;-3.71;100.00;102815.34;4830850;29;20182;-82
2021/12/21 04:03:31;;;;;;;7.57;5.13;;;;;;;-3.74;100.00;102818.69;4861185;29;20174;-82
2021/12/21 04:05:57;;;;;;;12.38;5.22;;;;;;;-3.78;100.00;102817.63;4864917;29;20270;-81
2021/12/21 04:08:22;;;;;;;9.27;5.90;;;;;;;-3.85;100.00;102812.88;4846838;29;20217;-82
2021/12/21 04:10:48;;;;;;;8.82;5.32;;;;;;;-3.88;100.00;102817.06;4863553;29;20371;-82
2021/12/21 04:13:13;;;;;;;7.57;5.22;;;;;;;-3.86;100.00;102818.94;4864205;29;20174;-82
2021/12/21 04:15:42;;;;;;;9.20;5.60;;;;;;;-3.82;100.00;102818.28;4846236;29;20700;-82
2021/12/21 04:18:10;;;;;;;7.72;5.40;;;;;;;-3.82;100.00;102820.03;4846334;29;20210;-81
2021/12/21 04:20:36;;;;;;;6.95;4.55;;;;;;;-3.79;100.00;102815.81;4847075;29;20225;-81
2021/12/21 04:23:02;;;;;;;5.88;4.68;;;;;;;-3.82;100.00;102810.44;4847754;29;20579;-82
2021/12/21 04:25:28;;;;;;;8.85;5.40;;;;;;;-3.90;100.00;102803.88;4847062;29;20632;-82
2021/12/21 04:27:54;;;;;;;7.75;5.07;;;;;;;-3.86;100.00;102799.72;4846589;29;20174;-82
2021/12/21 04:30:20;;;;;;;11.75;5.80;;;;;;;-3.94;100.00;102804.53;4845762;29;20202;-83
2021/12/21 04:32:45;;;;;;;8.30;5.50;;;;;;;-3.84;100.00;102803.31;4857936;29;20189;-83
2021/12/21 04:35:11;;;;;;;9.10;5.32;;;;;;;-3.80;100.00;102800.94;4859151;29;20166;-83
2021/12/21 04:37:42;;;;;;;13.13;5.50;;;;;;;-3.94;100.00;102809.78;4858672;29;20198;-83
2021/12/21 04:40:14;;;;;;;7.70;5.45;;;;;;;-3.88;100.00;102803.97;4859039;29;20214;-83
2021/12/21 04:42:39;;;;;;;8.07;4.82;;;;;;;-3.88;100.00;102814.44;4842909;29;20169;-83
2021/12/21 04:45:05;;;;;;;7.45;4.88;;;;;;;-3.87;100.00;102808.38;4842512;29;20170;-84
2021/12/21 04:47:30;;;;;;;6.05;4.65;;;;;;;-3.88;100.00;102802.25;4842335;29;20637;-83
2021/12/21 04:49:56;;;;;;;8.40;5.25;;;;;;;-3.81;100.00;102806.97;4858941;29;20677;-83
2021/12/21 04:52:21;;;;;;;8.90;4.65;;;;;;;-3.88;100.00;102791.78;4842298;29;20173;-82
2021/12/21 04:54:46;;;;;;;5.82;5.15;;;;;;;-3.90;100.00;102801.28;4825230;29;20277;-83
2021/12/21 04:57:12;;;;;;;5.63;4.25;;;;;;;-3.88;100.00;102794.41;4814549;29;20210;-83
2021/12/21 04:59:37;;;;;;;12.02;5.55;;;;;;;-4.00;100.00;102793.72;4824805;29;20205;-82
2021/12/21 05:02:03;;;;;;;9.23;5.50;;;;;;;-4.07;100.00;102802.09;4846159;29;20174;-83
2021/12/21 05:04:28;;;;;;;7.55;4.82;;;;;;;-4.10;100.00;102792.38;4828945;29;20174;-82
2021/12/21 05:06:54;;;;;;;5.95;4.35;;;;;;;-3.99;100.00;102800.78;4843245;29;20179;-82
2021/12/21 05:09:36;;;;;;;11.50;5.28;;;;;;;-4.01;100.00;102797.19;4843216;29;20282;-82
2021/12/21 05:12:05;;;;;;;7.90;4.90;;;;;;;-3.97;100.00;102809.63;4827127;29;20187;-82
2021/12/21 05:14:30;;;;;;;9.40;5.07;;;;;;;-4.03;100.00;102798.81;4843426;29;20877;-82
2021/12/21 05:16:56;;;;;;;9.68;5.47;;;;;;;-3.99;100.00;102808.63;4856809;29;20187;-82
2021/12/21 05:19:21;;;;;;;9.38;5.53;;;;;;;-4.06;100.00;102802.19;4825951;29;20203;-82
2021/12/21 05:21:47;;;;;;;6.63;5.07;;;;;;;-4.07;100.00;102797.75;4842523;29;20177;-82
2021/12/21 05:24:12;;;;;;;8.00;5.63;;;;;;;-4.04;100.00;102791.81;4811573;29;20622;-82
2021/12/21 05:26:37;;;;;;;5.75;5.13;;;;;;;-4.03;100.00;102806.69;4825385;29;20175;-82
2021/12/21 05:29:04;;;;;;;6.70;5.35;;;;;;;-4.04;100.00;102802.28;4843792;29;20199;-82
2021/12/21 05:31:29;;;;;;;7.03;5.65;;;;;;;-4.07;100.00;102804.72;4829358;29;20214;-82
2021/12/21 05:33:55;;;;;;;6.75;5.03;;;;;;;-4.09;100.00;102808.97;4829691;29;20178;-82
2021/12/21 05:36:20;;;;;;;6.47;5.07;;;;;;;-4.09;100.00;102806.34;4828934;29;20265;-82
2021/12/21 05:38:54;;;;;;;7.32;5.35;;;;;;;-4.07;100.00;102802.97;4828008;29;20214;-82
2021/12/21 05:41:39;;;;;;;6.65;5.60;;;;;;;-4.19;100.00;102792.78;4814213;29;20174;-82
2021/12/21 05:44:05;;;;;;;8.65;4.95;;;;;;;-4.15;100.00;102799.97;4845003;29;20198;-82
2021/12/21 05:46:31;;;;;;;6.22;4.65;;;;;;;-4.15;100.00;102794.75;4828254;29;20167;-82
2021/12/21 05:48:56;;;;;;;7.18;4.88;;;;;;;-4.16;100.00;102794.66;4844864;29;20178;-82
2021/12/21 05:51:22;;;;;;;7.68;5.40;;;;;;;-4.23;100.00;102795.16;4845396;29;20211;-82
2021/12/21 05:53:48;;;;;;;8.88;5.60;;;;;;;-4.33;100.00;102788.50;4827704;29;20217;-82
2021/12/21 05:56:14;;;;;;;6.25;4.25;;;;;;;-4.26;100.00;102800.22;4844787;29;20182;-82
2021/12/21 05:58:39;;;;;;;9.23;5.43;;;;;;;-4.30;100.00;102806.09;4822518;29;20284;-82
2021/12/21 06:01:05;;;;;;;8.57;5.43;;;;;;;-4.42;100.00;102798.47;4809241;29;20211;-82
2021/12/21 06:03:30;;;;;;;9.23;5.43;;;;;;;-4.37;100.00;102800.53;4829144;29;20176;-83
2021/12/21 06:05:56;;;;;;;8.07;5.47;;;;;;;-4.38;100.00;102796.09;4809841;29;20191;-82
2021/12/21 06:08:23;;;;;;;8.35;5.43;;;;;;;-4.34;100.00;102791.94;4830461;29;20187;-82
2021/12/21 06:10:51;;;;;;;9.32;5.10;;;;;;;-4.27;100.00;102796.69;4800137;29;20210;-81
2021/12/21 06:13:48;;;;;;;8.13;5.57;;;;;;;-4.24;100.00;102791.63;4812663;29;20175;-81
2021/12/21 06:22:43;;;;;;;6.85;5.43;;;;;;;-4.29;100.00;102790.47;4812599;29;20203;-81
2021/12/21 06:27:25;;;;;;;8.30;4.95;;;;;;;-4.37;100.00;102789.19;4813797;29;20229;-82
2021/12/21 06:29:51;;;;;;;6.75;4.68;;;;;;;-4.35;100.00;102796.28;4797923;29;20196;-82
2021/12/21 06:32:16;;;;;;;7.53;5.07;;;;;;;-4.29;100.00;102798.31;4811670;29;20653;-82
2021/12/21 06:34:42;;;;;;;7.10;5.38;;;;;;;-4.38;100.00;102798.72;4833890;29;20183;-82
2021/12/21 06:37:08;;;;;;;9.32;5.68;;;;;;;-4.46;100.00;102791.25;4817308;29;20206;-82
2021/12/21 06:39:34;;;;;;;8.98;5.20;;;;;;;-4.45;100.00;102803.53;4828044;29;20615;-81
2021/12/21 06:42:01;;;;;;;10.77;5.60;;;;;;;-4.40;100.00;102802.97;4814371;29;20202;-81
2021/12/21 06:44:26;;;;;;;9.80;5.40;;;;;;;-4.29;100.00;102800.94;4817838;29;20191;-82
2021/12/21 06:51:08;;;;;;;7.75;4.93;;;;;;;-4.24;100.00;102803.78;4815867;29;20214;-81
2021/12/21 06:52:21;;;;;;;7.88;5.57;;;;;;;-4.27;100.00;102793.16;4827726;29;20186;-81
2021/12/21 06:54:47;;;;;;;9.23;6.13;;;;;;;-4.38;100.00;102796.09;4858646;29;20535;-83
2021/12/21 06:57:13;;;;;;;7.68;4.88;;;;;;;-4.36;100.00;102812.78;4827080;29;20323;-81
2021/12/21 06:59:39;;;;;;;9.63;5.72;;;;;;;-4.31;100.00;102807.78;4831965;29;20567;-81
2021/12/21 07:02:05;;;;;;;9.50;5.53;;;;;;;-4.36;100.00;102804.94;4809865;29;20179;-81
2021/12/21 07:04:31;;;;;;;8.23;5.97;;;;;;;-4.38;100.00;102803.06;4825585;29;20695;-81
2021/12/21 07:06:58;;;;;;;8.85;6.10;;;;;;;-4.32;100.00;102805.13;4824808;29;20175;-83
2021/12/21 07:09:41;;;;;;;11.60;6.85;;;;;;;-4.35;100.00;102798.00;4830783;29;20282;-82
2021/12/21 07:12:23;;;;;;;12.60;6.00;;;;;;;-4.30;100.00;102793.03;4830191;29;20171;-82
2021/12/21 07:20:17;;;;;;;12.20;5.93;;;;;;;-4.28;100.00;102797.50;4828296;29;20205;-82
2021/12/21 07:22:43;;;;;;;10.60;6.00;;;;;;;-4.27;100.00;102804.53;4828804;29;20183;-80
2021/12/21 07:25:08;;;;;;;8.82;5.88;;;;;;;-4.30;100.00;102801.75;4845310;29;20171;-81
2021/12/21 07:27:34;;;;;;;12.80;5.97;;;;;;;-4.25;100.00;102794.16;4825827;29;20231;-83
2021/12/21 07:29:59;;;;;;;10.85;6.40;;;;;;;-4.35;100.00;102800.63;4825736;29;20203;-84
2021/12/21 07:32:25;;;;;;;9.07;6.45;;;;;;;-4.43;100.00;102800.19;4826126;29;20242;-82
2021/12/21 07:34:50;;;;;;;10.95;6.57;;;;;;;-4.35;100.00;102800.63;4842542;29;20236;-83
2021/12/21 07:37:15;;;;;;;9.70;6.32;;;;;;;-4.36;100.00;102797.09;4825903;29;20198;-83
2021/12/21 07:39:41;;;;;;;7.25;5.55;;;;;;;-4.36;100.00;102796.19;4827749;29;20198;-82
2021/12/21 07:42:07;;;;;;;8.60;6.10;;;;;;;-4.33;100.00;102791.13;4810806;29;20267;-83
2021/12/21 07:44:32;;;;;;;8.05;6.03;;;;;;;-4.36;100.00;102791.84;4842250;29;20171;-83
2021/12/21 07:46:58;;;;;;;8.65;6.22;;;;;;;-4.33;100.00;102795.44;4836325;24;20326;-80
2021/12/21 07:49:23;;;;;;;9.52;6.30;;;;;;;-4.37;100.00;102794.41;4827177;29;20215;-82
2021/12/21 07:51:49;;;;;;;8.98;6.00;;;;;;;-4.46;100.00;102792.19;4838497;29;20526;-81
2021/12/21 07:54:16;;;;;;;10.27;6.40;;;;;;;-4.53;100.00;102795.25;4830380;29;20200;-80
2021/12/21 07:56:42;;;;;;;9.82;6.28;;;;;;;-4.47;100.00;102793.00;4844874;29;20259;-83
2021/12/21 07:59:08;;;;;;;8.15;5.82;;;;;;;-4.43;100.00;102797.56;4805787;29;20222;-82
2021/12/21 08:01:34;;;;;;;14.70;6.45;;;;;;;-4.47;100.00;102800.84;4808254;29;20624;-84
2021/12/21 08:04:02;;;;;;;8.10;5.72;;;;;;;-4.51;100.00;102808.44;4823597;29;20190;-82
2021/12/21 08:06:31;;;;;;;10.95;6.13;;;;;;;-4.42;100.00;102804.59;4823739;29;20179;-82
2021/12/21 08:08:56;;;;;;;11.43;6.25;;;;;;;-4.51;100.00;102803.19;4807450;29;20182;-80
2021/12/21 08:12:11;;;;;;;13.75;6.72;;;;;;;-4.49;100.00;102804.19;4811729;29;20697;-82
2021/12/21 08:14:14;;;;;;;10.93;6.60;;;;;;;-4.53;100.00;102803.09;4812063;29;20218;-80
2021/12/21 08:16:39;;;;;;;9.73;6.65;;;;;;;-4.46;100.00;102807.88;4830163;29;20491;-80
2021/12/21 08:19:05;;;;;;;10.68;5.78;;;;;;;-4.41;100.00;102810.75;4828231;29;20208;-80
2021/12/21 08:21:31;;;;;;;8.70;6.47;;;;;;;-4.35;100.00;102805.84;4828622;29;20194;-81
2021/12/21 08:23:57;;;;;;;9.27;6.75;;;;;;;-4.27;100.00;102798.41;4828236;29;20186;-81
2021/12/21 08:26:23;;;;;;;10.77;7.22;;;;;;;-4.33;100.00;102806.81;4827856;29;20203;-80
2021/12/21 08:28:48;;;;;;;13.05;7.00;;;;;;;-4.25;100.00;102795.06;4813757;29;20195;-81
2021/12/21 08:31:15;;;;;;;11.65;6.93;;;;;;;-4.17;100.00;102798.09;4830476;29;20653;-80
2021/12/21 08:33:41;;;;;;;13.35;7.68;;;;;;;-4.12;100.00;102793.09;4797761;29;20191;-83
2021/12/21 08:36:08;;;;;;;8.70;6.60;;;;;;;-4.00;100.00;102798.97;4828887;29;20629;-80
2021/12/21 08:38:37;;;;;;;10.65;7.15;;;;;;;-3.99;100.00;102796.44;4827812;29;20200;-80
2021/12/21 08:41:03;;;;;;;12.73;7.57;;;;;;;-3.83;100.00;102792.00;4828732;29;20255;-81
2021/12/21 08:43:31;;;;;;;11.27;7.68;;;;;;;-3.80;100.00;102793.09;4827583;29;20183;-81
2021/12/21 08:45:57;;;;;;;11.23;7.63;;;;;;;-3.78;100.00;102795.78;4826718;29;20168;-81
2021/12/21 08:48:23;;;;;;;13.73;7.93;;;;;;;-3.77;100.00;102801.09;4829356;29;20531;-81
2021/12/21 08:50:53;;;;;;;9.20;6.95;;;;;;;-3.87;100.00;102788.34;4831739;29;20214;-82
2021/12/21 08:53:18;;;;;;;12.80;8.15;;;;;;;-4.00;100.00;102802.50;4813224;29;20233;-82
2021/12/21 08:55:45;;;;;;;14.63;8.80;;;;;;;-4.00;100.00;102798.97;4814085;29;20625;-82
2021/12/21 08:58:11;;;;;;;14.15;8.93;;;;;;;-3.97;100.00;102812.25;4812052;29;20704;-82
2021/12/21 09:00:37;;;;;;;16.00;8.75;;;;;;;-3.91;100.00;102809.97;4828671;29;20673;-82
2021/12/21 09:03:04;;;;;;;12.38;7.50;;;;;;;-3.78;100.00;102812.41;4810596;29;20183;-82
2021/12/21 09:05:31;;;;;;;15.63;8.35;;;;;;;-3.66;100.00;102801.66;4793955;29;20267;-82
2021/12/21 09:07:59;;;;;;;12.85;9.13;;;;;;;-3.58;100.00;102802.06;4822802;29;20188;-82
2021/12/21 09:10:28;;;;;;;13.60;8.82;;;;;;;-3.55;100.00;102807.44;4791155;29;20331;-82
2021/12/21 09:12:54;;;;;;;19.02;11.40;;;;;;;-3.37;100.00;102800.53;4824725;29;20258;-83
2021/12/21 09:15:21;;;;;;;15.48;9.13;;;;;;;-3.28;100.00;102794.84;4823067;29;20187;-82
2021/12/21 09:17:47;;;;;;;13.85;8.98;;;;;;;-3.14;100.00;102811.25;4808006;29;20677;-83
2021/12/21 09:20:15;;;;;;;14.75;10.57;;;;;;;-3.05;100.00;102809.09;4814916;29;20301;-82
2021/12/21 09:22:41;;;;;;;15.07;10.20;;;;;;;-2.94;100.00;102802.66;4829221;29;20173;-81
2021/12/21 09:25:09;;;;;;;15.13;11.27;;;;;;;-2.88;100.00;102815.16;4843912;29;20187;-82
2021/12/21 09:27:37;;;;;;;18.10;11.68;;;;;;;-2.87;100.00;102810.81;4826572;29;20197;-82
2021/12/21 09:30:11;;;;;;;18.30;12.73;;;;;;;-3.10;100.00;102805.34;4827623;29;20293;-82
2021/12/21 09:32:36;;;;;;;14.35;12.27;;;;;;;-3.11;100.00;102808.78;4827452;29;20178;-82
2021/12/21 09:35:02;;;;;;;16.77;12.73;;;;;;;-3.16;100.00;102808.56;4843429;29;20242;-82
2021/12/21 09:37:28;;;;;;;18.33;12.82;;;;;;;-3.02;100.00;102809.22;4982783;23;20304;-81
2021/12/21 09:39:55;;;;;;;14.73;11.00;;;;;;;-2.84;100.00;102805.72;4825266;29;20322;-82
2021/12/21 09:42:24;;;;;;;15.00;12.25;;;;;;;-2.62;100.00;102815.53;4843417;29;20175;-82
2021/12/21 09:44:51;;;;;;;14.45;11.48;;;;;;;-2.34;100.00;102822.97;4826902;29;20225;-82
2021/12/21 09:47:17;;;;;;;20.80;12.75;;;;;;;-2.16;100.00;102831.72;4820634;29;20202;-81
2021/12/21 09:49:44;;;;;;;18.35;12.63;;;;;;;-2.09;100.00;102839.03;4825761;29;20222;-82
2021/12/21 09:52:13;;;;;;;17.80;13.57;;;;;;;-2.16;100.00;102844.84;4841491;29;20247;-81
2021/12/21 09:54:39;;;;;;;16.13;12.88;;;;;;;-2.05;100.00;102841.81;4826703;29;20239;-82
2021/12/21 09:57:06;;;;;;;18.85;12.10;;;;;;;-2.09;100.00;102835.53;4827219;29;20532;-82
2021/12/21 09:59:32;;;;;;;17.55;12.55;;;;;;;-1.77;100.00;102844.88;4826398;29;20210;-82
2021/12/21 10:01:58;;;;;;;15.70;12.73;;;;;;;-1.62;100.00;102846.38;4826473;29;20652;-82
2021/12/21 10:04:25;;;;;;;20.38;13.50;;;;;;;-1.53;100.00;102846.75;4826248;29;20702;-82
2021/12/21 10:06:53;;;;;;;16.98;12.75;;;;;;;-1.44;100.00;102841.94;4825948;29;20210;-83
2021/12/21 10:09:23;;;;;;;17.95;12.82;;;;;;;-1.32;100.00;102847.69;4840241;29;20195;-84
2021/12/21 10:11:50;;;;;;;15.57;11.77;;;;;;;-1.42;100.00;102836.72;4824143;29;20172;-84
2021/12/21 10:14:18;;;;;;;16.23;10.85;;;;;;;-1.40;100.00;102837.69;4809821;29;20258;-85
2021/12/21 10:16:46;;;;;;;13.40;10.00;;;;;;;-1.29;100.00;102833.78;4812589;29;20190;-85
2021/12/21 10:19:24;;;;;;;14.23;10.98;;;;;;;-1.24;100.00;102829.63;4814826;29;20210;-84
2021/12/21 10:21:50;;;;;;;13.68;10.88;;;;;;;-1.13;100.00;102815.19;4817619;29;20185;-84
2021/12/21 10:24:27;;;;;;;16.17;10.25;;;;;;;-1.04;100.00;102812.94;4847714;29;20175;-85
2021/12/21 10:27:05;;;;;;;15.18;10.63;;;;;;;-1.02;100.00;102813.03;4848777;29;20174;-84
2021/12/21 10:29:43;;;;;;;13.93;10.50;;;;;;;-0.95;100.00;102817.69;4831120;29;20210;-84
2021/12/21 10:32:24;;;;;;;16.20;10.35;;;;;;;-0.91;100.00;102805.56;4830769;29;20181;-83
2021/12/21 10:34:52;;;;;;;13.90;9.98;;;;;;;-0.84;100.00;102807.59;4854348;29;20170;-84
2021/12/21 10:37:25;;;;;;;14.95;9.77;;;;;;;-0.90;100.00;102812.59;4837678;29;20202;-84
2021/12/21 10:40:06;;;;;;;16.17;9.93;;;;;;;-0.87;100.00;102815.38;4820572;29;20218;-84
2021/12/21 10:42:31;;;;;;;17.40;9.90;;;;;;;-0.89;100.00;102815.31;4821570;29;20277;-83
2021/12/21 10:45:05;;;;;;;11.52;8.45;;;;;;;-0.87;100.00;102812.75;4836294;29;20597;-83
2021/12/21 10:47:33;;;;;;;14.77;8.77;;;;;;;-0.78;100.00;102817.50;4835480;29;20171;-84
2021/12/21 10:49:59;;;;;;;11.38;8.20;;;;;;;-0.79;100.00;102806.03;4848273;29;20202;-84
2021/12/21 10:52:26;;;;;;;11.95;9.73;;;;;;;-0.78;100.00;102817.50;4844527;29;20259;-83
2021/12/21 10:54:52;;;;;;;10.05;8.43;;;;;;;-0.78;100.00;102804.34;4817007;29;20607;-83
2021/12/21 10:57:24;;;;;;;17.27;8.73;;;;;;;-0.73;100.00;102801.03;4847431;29;20212;-83
2021/12/21 10:59:53;;;;;;;14.80;10.55;;;;;;;-0.80;100.00;102806.00;4814732;29;20677;-83
2021/12/21 11:02:30;;;;;;;12.68;9.15;;;;;;;-0.70;100.00;102806.44;4794729;29;20237;-82
2021/12/21 11:05:16;;;;;;;15.48;9.82;;;;;;;-0.74;100.00;102811.53;4808764;29;20557;-84
2021/12/21 11:07:52;;;;;;;12.70;8.93;;;;;;;-0.69;100.00;102797.69;4792815;29;20211;-82
2021/12/21 11:10:26;;;;;;;11.02;8.40;;;;;;;-0.61;100.00;102800.63;4792856;29;20268;-82
2021/12/21 11:13:08;;;;;;;13.23;8.68;;;;;;;-0.54;100.00;102799.16;4807260;29;20188;-83
2021/12/21 11:15:38;;;;;;;10.05;8.75;;;;;;;-0.52;100.00;102801.00;4792355;29;20180;-83
2021/12/21 11:18:18;;;;;;;13.15;8.98;;;;;;;-0.49;100.00;102795.84;4808485;29;20583;-82
2021/12/21 11:20:48;;;;;;;16.02;8.52;;;;;;;-0.48;100.00;102794.09;4808597;29;20623;-83
2021/12/21 11:23:15;;;;;;;11.00;8.00;;;;;;;-0.50;100.00;102788.78;4807732;29;20189;-83
2021/12/21 11:25:44;;;;;;;10.93;8.10;;;;;;;-0.45;100.00;102789.84;4791020;29;20235;-83
2021/12/21 11:28:13;;;;;;;12.65;8.60;;;;;;;-0.31;100.00;102779.84;4804827;29;20527;-84
2021/12/21 11:30:42;;;;;;;11.07;8.15;;;;;;;-0.30;100.00;102776.38;4805220;29;20200;-84
2021/12/21 11:33:10;;;;;;;10.23;7.55;;;;;;;-0.24;100.00;102780.97;4804990;29;20227;-84
2021/12/21 11:38:08;;;;;;;8.65;6.75;;;;;;;-0.11;100.00;102777.97;4804949;29;20624;-84
2021/12/21 11:40:45;;;;;;;11.30;7.03;;;;;;;-0.08;100.00;102771.91;4793490;29;20239;-83
2021/12/21 11:43:27;;;;;;;9.82;6.80;;;;;;;-0.15;100.00;102775.13;4791890;29;20665;-84
2021/12/21 11:46:05;;;;;;;9.93;6.30;;;;;;;0.03;100.00;102774.94;4792164;29;20562;-84
2021/12/21 11:48:49;;;;;;;7.70;6.05;;;;;;;0.12;99.73;102765.63;4791104;29;20255;-84
2021/12/21 11:51:15;;;;;;;8.70;5.97;;;;;;;0.27;99.22;102761.75;4791008;29;20646;-84
2021/12/21 11:53:41;;;;;;;7.68;5.72;;;;;;;0.28;98.62;102759.16;4790679;29;20204;-84
2021/12/21 11:56:16;;;;;;;7.47;5.28;;;;;;;0.25;98.07;102761.69;4806997;29;20176;-84
2021/12/21 11:58:42;;;;;;;9.10;5.63;;;;;;;0.40;97.90;102759.59;4811633;29;20283;-84
2021/12/21 12:01:15;;;;;;;11.90;5.65;;;;;;;0.41;96.79;102761.38;4825121;29;20685;-83
2021/12/21 12:03:52;;;;;;;8.88;5.63;;;;;;;0.51;96.24;102764.34;4808896;29;20179;-85
2021/12/21 12:06:17;;;;;;;6.95;5.35;;;;;;;0.56;96.20;102762.75;4825053;29;20274;-84
2021/12/21 12:08:44;;;;;;;7.93;5.65;;;;;;;0.49;95.73;102760.75;4807539;29;20266;-84
2021/12/21 12:11:25;;;;;;;10.05;6.30;;;;;;;0.36;95.58;102762.94;4808885;29;20195;-84
2021/12/21 12:14:06;;;;;;;8.85;5.78;;;;;;;0.30;95.14;102765.38;4808823;29;20560;-84
2021/12/21 12:16:42;;;;;;;9.23;5.22;;;;;;;0.41;95.38;102758.72;4823638;29;20198;-84
2021/12/21 12:19:14;;;;;;;7.47;5.00;;;;;;;0.41;94.53;102757.84;4808111;29;20622;-84
2021/12/21 12:21:53;;;;;;;7.85;5.35;;;;;;;0.37;94.47;102759.50;4823309;29;20290;-84
2021/12/21 12:24:20;;;;;;;8.50;5.47;;;;;;;0.20;94.71;102756.25;4808201;29;20187;-84
2021/12/21 12:26:57;;;;;;;8.15;4.97;;;;;;;0.20;93.85;102747.47;4808203;29;20282;-84
2021/12/21 12:29:23;;;;;;;7.68;3.92;;;;;;;0.06;94.02;102744.31;4811289;29;20186;-83
2021/12/21 12:32:07;;;;;;;6.05;3.80;;;;;;;0.14;93.62;102736.69;4825767;29;20194;-83